Terminal Aerodrome Forecast
Issued by NWS

Home | Current Version | Previous Version | Text Only | Print | Product List | Glossary Off
Versions: 1 2 3 4 5 6 7 8 9 10 11 12 13 14 15 16 17 18 19 20 21 22 23 24 25 26 27 28 29 30 31 32 33 34 35 36

000
FTUS43 KLOT 210255 AAA
TAFORD
TAF AMD
KORD 210255Z 2103/2206 24012KT P6SM SCT050
     FM211400 27015G25KT P6SM FEW050
     FM211600 27025G35KT P6SM BKN050
     FM212300 27015G25KT P6SM BKN050
     FM220130 27012KT P6SM SKC=

USA.gov is the U.S. government's official web portal to all federal, state and local government web resources and services.